Time;durP1;ratioP1;P1;durP2;ratioP2;P2;SDS_P1;SDS_P2;PMS_P1;PMS_P2;Temp;Humidity;BMP_temperature;BMP_pressure;BME280_temperature;BME280_humidity;BME280_pressure;Samples;Min_cycle;Max_cycle;Signal;HPM_P1;HPM_P2
2023/08/09 03:03:06;;;;;;;0.65;0.50;;;21.20;54.20;;;;;;4900412;28;44978;-81
2023/08/09 03:05:32;;;;;;;0.40;0.40;;;21.20;54.20;;;;;;4845470;28;45208;-82
2023/08/09 03:07:57;;;;;;;0.98;0.52;;;21.30;54.30;;;;;;4863909;28;45143;-82
2023/08/09 03:10:23;;;;;;;0.68;0.40;;;21.30;54.30;;;;;;4875916;28;45273;-82
2023/08/09 03:12:49;;;;;;;0.50;0.40;;;21.30;54.30;;;;;;4909030;28;46180;-81
2023/08/09 03:15:15;;;;;;;0.63;0.47;;;21.30;54.30;;;;;;4876747;28;45263;-81
2023/08/09 03:17:41;;;;;;;1.08;0.43;;;21.20;54.20;;;;;;4878486;28;44928;-83
2023/08/09 03:20:13;;;;;;;0.93;0.47;;;21.30;54.30;;;;;;4862924;28;45470;-81
2023/08/09 03:22:42;;;;;;;0.55;0.43;;;21.20;54.20;;;;;;4882514;28;45224;-82
2023/08/09 03:25:11;;;;;;;0.52;0.30;;;21.30;54.30;;;;;;4880344;28;45036;-80
2023/08/09 03:27:36;;;;;;;0.40;0.40;;;21.20;54.20;;;;;;4878576;28;45172;-81
2023/08/09 03:30:04;;;;;;;0.60;0.50;;;21.30;54.30;;;;;;4893784;28;47189;-88
2023/08/09 03:32:30;;;;;;;1.02;0.50;;;21.30;54.30;;;;;;4871481;28;45175;-81
2023/08/09 03:34:55;;;;;;;0.90;0.70;;;21.30;54.30;;;;;;4879279;28;44844;-86
2023/08/09 03:37:21;;;;;;;0.55;0.40;;;21.30;54.30;;;;;;4878977;28;45557;-82
2023/08/09 03:39:46;;;;;;;0.65;0.45;;;21.30;54.30;;;;;;4897807;28;45579;-82
2023/08/09 03:42:12;;;;;;;0.50;0.50;;;21.30;54.40;;;;;;4876546;28;45049;-85
2023/08/09 03:44:37;;;;;;;1.30;0.75;;;21.30;54.30;;;;;;4883000;28;45183;-80
2023/08/09 03:47:03;;;;;;;0.73;0.40;;;21.30;54.30;;;;;;4893309;28;45121;-84
2023/08/09 03:49:29;;;;;;;2.58;0.70;;;21.30;54.30;;;;;;4863700;28;45216;-84
2023/08/09 03:51:54;;;;;;;0.50;0.50;;;21.30;54.30;;;;;;4879885;28;45457;-84
2023/08/09 03:54:20;;;;;;;1.02;0.55;;;21.30;54.40;;;;;;4877290;28;45073;-81
2023/08/09 03:56:46;;;;;;;0.70;0.68;;;21.20;54.30;;;;;;4871444;28;45664;-82
2023/08/09 03:59:11;;;;;;;0.50;0.43;;;21.30;54.30;;;;;;4881326;28;45388;-84
2023/08/09 04:01:37;;;;;;;0.50;0.50;;;21.30;54.30;;;;;;4885917;28;45363;-81
2023/08/09 04:04:03;;;;;;;0.70;0.50;;;21.30;54.40;;;;;;4908658;28;45117;-81
2023/08/09 04:06:29;;;;;;;1.25;0.70;;;21.30;54.40;;;;;;4876374;28;45332;-82
2023/08/09 04:08:54;;;;;;;0.57;0.50;;;21.30;54.40;;;;;;4862064;28;47542;-82
2023/08/09 04:11:20;;;;;;;0.73;0.45;;;21.30;54.40;;;;;;4873876;28;45348;-82
2023/08/09 04:13:46;;;;;;;1.10;0.50;;;21.20;54.30;;;;;;4878743;28;45224;-85
2023/08/09 04:16:11;;;;;;;1.52;0.50;;;21.20;54.30;;;;;;4873642;28;45621;-80
2023/08/09 04:18:37;;;;;;;0.93;0.60;;;21.30;54.40;;;;;;4875760;28;45526;-84
2023/08/09 04:21:02;;;;;;;1.00;0.52;;;21.20;54.30;;;;;;4868925;28;45046;-81
2023/08/09 04:23:28;;;;;;;0.50;0.50;;;21.30;54.40;;;;;;4866627;28;45022;-80
2023/08/09 04:25:54;;;;;;;1.10;0.70;;;21.30;54.40;;;;;;4899777;28;45272;-81
2023/08/09 04:28:20;;;;;;;0.77;0.50;;;21.30;54.40;;;;;;4898483;28;45936;-80
2023/08/09 04:30:46;;;;;;;1.77;0.77;;;21.30;54.40;;;;;;4907412;28;45035;-80
2023/08/09 04:33:12;;;;;;;0.57;0.43;;;21.30;54.40;;;;;;4887765;28;45056;-83
2023/08/09 04:35:38;;;;;;;0.80;0.40;;;21.30;54.40;;;;;;4893819;28;45034;-81
2023/08/09 04:38:03;;;;;;;0.80;0.57;;;21.30;54.40;;;;;;4883085;28;45457;-83
2023/08/09 04:40:30;;;;;;;2.13;0.57;;;21.20;54.40;;;;;;4863875;28;44950;-80
2023/08/09 04:42:55;;;;;;;1.05;0.60;;;21.30;54.40;;;;;;4870423;28;45269;-83
2023/08/09 04:45:21;;;;;;;0.63;0.50;;;21.30;54.40;;;;;;4893810;28;45017;-81
2023/08/09 04:47:48;;;;;;;0.68;0.60;;;21.20;54.40;;;;;;4863577;28;47273;-81
2023/08/09 04:50:13;;;;;;;2.08;0.40;;;21.30;54.50;;;;;;4885905;28;45124;-82
2023/08/09 04:52:39;;;;;;;1.00;0.70;;;21.20;54.40;;;;;;4905929;28;45221;-82
2023/08/09 04:55:05;;;;;;;0.45;0.45;;;21.30;54.50;;;;;;4883865;28;45187;-83
2023/08/09 04:57:31;;;;;;;1.10;0.75;;;21.30;54.50;;;;;;4883944;28;45304;-82
2023/08/09 04:59:57;;;;;;;2.83;0.80;;;21.20;54.40;;;;;;4884268;28;44985;-80
2023/08/09 05:02:23;;;;;;;0.50;0.50;;;21.30;54.50;;;;;;4866208;28;45337;-83
2023/08/09 05:04:48;;;;;;;0.65;0.50;;;21.30;54.50;;;;;;4888330;28;45544;-81
2023/08/09 05:07:14;;;;;;;0.88;0.50;;;21.30;54.50;;;;;;4895434;28;47321;-79
2023/08/09 05:09:40;;;;;;;0.90;0.60;;;21.30;54.50;;;;;;4875331;28;45151;-80
2023/08/09 05:12:05;;;;;;;0.73;0.60;;;21.30;54.50;;;;;;4882260;28;44921;-81
2023/08/09 05:14:31;;;;;;;0.50;0.50;;;21.30;54.50;;;;;;4889800;28;45070;-82
2023/08/09 05:16:56;;;;;;;0.50;0.50;;;21.30;54.50;;;;;;4893984;28;45614;-81
2023/08/09 05:19:22;;;;;;;0.80;0.65;;;21.20;54.50;;;;;;4888428;28;45188;-81
2023/08/09 05:21:48;;;;;;;1.13;0.60;;;21.20;54.50;;;;;;4914514;28;45174;-81
2023/08/09 05:24:14;;;;;;;1.48;0.70;;;21.20;54.50;;;;;;4902813;28;44692;-82
2023/08/09 05:26:39;;;;;;;0.50;0.50;;;21.30;54.60;;;;;;4883984;28;46215;-82
2023/08/09 05:29:05;;;;;;;1.20;0.60;;;21.20;54.50;;;;;;4874012;28;45721;-82
2023/08/09 05:31:31;;;;;;;1.38;0.70;;;21.30;54.60;;;;;;4886099;28;45882;-84
2023/08/09 05:33:56;;;;;;;0.60;0.60;;;21.20;54.50;;;;;;4886665;28;45054;-84
2023/08/09 05:36:22;;;;;;;0.63;0.63;;;21.30;54.60;;;;;;4887409;28;46001;-81
2023/08/09 05:38:48;;;;;;;0.77;0.45;;;21.20;54.50;;;;;;4914850;28;45846;-82
2023/08/09 05:41:14;;;;;;;0.80;0.50;;;21.30;54.60;;;;;;4895024;28;44851;-80
2023/08/09 05:43:39;;;;;;;1.00;0.60;;;21.30;54.60;;;;;;4887468;28;45151;-82
2023/08/09 05:46:05;;;;;;;1.25;0.52;;;21.30;54.60;;;;;;4894034;28;45305;-81
2023/08/09 05:48:30;;;;;;;1.33;0.55;;;21.30;54.60;;;;;;4883183;28;45101;-81
2023/08/09 05:50:56;;;;;;;1.13;0.63;;;21.30;54.60;;;;;;4863526;28;46378;-83
2023/08/09 05:53:21;;;;;;;0.70;0.60;;;21.30;54.60;;;;;;4896219;28;44912;-82
2023/08/09 05:55:47;;;;;;;1.60;0.50;;;21.30;54.60;;;;;;4879264;28;47466;-82
2023/08/09 05:58:14;;;;;;;0.70;0.40;;;21.20;54.60;;;;;;4878524;28;44929;-81
2023/08/09 06:00:41;;;;;;;0.75;0.50;;;21.20;55.20;;;;;;4874951;28;45106;-81
2023/08/09 06:03:07;;;;;;;0.90;0.70;;;21.20;54.60;;;;;;4899735;28;46735;-80
2023/08/09 06:05:33;;;;;;;0.93;0.50;;;21.30;54.70;;;;;;4878689;28;45998;-82
2023/08/09 06:07:58;;;;;;;0.93;0.73;;;21.30;54.70;;;;;;4897724;28;45079;-84
2023/08/09 06:10:25;;;;;;;0.90;0.75;;;21.20;54.60;;;;;;4896990;28;45176;-80
2023/08/09 06:12:51;;;;;;;0.52;0.52;;;21.30;54.70;;;;;;4853085;29;45349;-82
2023/08/09 06:15:17;;;;;;;0.80;0.50;;;21.30;54.70;;;;;;4864329;28;46015;-80
2023/08/09 06:17:42;;;;;;;0.82;0.57;;;21.30;54.70;;;;;;4852228;29;45099;-80
2023/08/09 06:20:14;;;;;;;0.63;0.40;;;21.30;54.70;;;;;;4872770;28;45279;-80
2023/08/09 06:22:40;;;;;;;0.90;0.70;;;21.30;54.70;;;;;;4898077;28;45602;-80
2023/08/09 06:25:09;;;;;;;1.00;0.75;;;21.30;54.70;;;;;;4886811;28;45706;-84
2023/08/09 06:27:35;;;;;;;0.90;0.60;;;21.20;54.60;;;;;;4872875;29;45614;-81
2023/08/09 06:30:00;;;;;;;0.75;0.60;;;21.30;54.70;;;;;;4868048;28;45272;-80
2023/08/09 06:32:27;;;;;;;0.73;0.52;;;21.20;54.60;;;;;;4863884;29;45686;-80
2023/08/09 06:34:52;;;;;;;1.27;0.55;;;21.30;54.70;;;;;;4885946;28;45459;-81
2023/08/09 06:37:18;;;;;;;0.75;0.60;;;21.30;54.70;;;;;;4893842;28;45281;-81
2023/08/09 06:39:44;;;;;;;1.60;0.60;;;21.30;54.70;;;;;;4896062;28;45135;-81
2023/08/09 06:42:12;;;;;;;2.70;0.60;;;21.20;55.20;;;;;;4868076;28;45102;-80
2023/08/09 06:44:38;;;;;;;1.10;0.77;;;21.30;54.70;;;;;;4868476;29;47227;-81
2023/08/09 06:47:03;;;;;;;0.60;0.60;;;21.30;54.70;;;;;;4844149;28;45377;-82
2023/08/09 06:49:29;;;;;;;0.73;0.68;;;21.20;54.60;;;;;;4866142;29;45373;-81
2023/08/09 06:51:55;;;;;;;1.60;0.70;;;21.30;54.70;;;;;;4897386;28;45396;-80
2023/08/09 06:54:20;;;;;;;0.68;0.55;;;21.30;54.70;;;;;;4869581;28;45473;-81
2023/08/09 06:56:46;;;;;;;1.27;0.57;;;21.30;54.70;;;;;;4871435;29;45568;-81
2023/08/09 06:59:11;;;;;;;0.98;0.55;;;21.30;54.70;;;;;;4884578;28;45234;-81
2023/08/09 07:01:37;;;;;;;0.93;0.65;;;21.30;54.70;;;;;;4859410;29;45315;-80
2023/08/09 07:04:03;;;;;;;1.33;0.57;;;21.20;54.70;;;;;;4847484;29;47532;-82
2023/08/09 07:06:28;;;;;;;0.88;0.60;;;21.30;54.80;;;;;;4867397;29;44871;-81
2023/08/09 07:08:54;;;;;;;1.35;0.60;;;21.20;54.80;;;;;;4852977;29;47242;-80
2023/08/09 07:11:20;;;;;;;1.20;0.70;;;21.30;54.80;;;;;;4845848;29;48156;-81
2023/08/09 07:13:46;;;;;;;1.65;0.60;;;21.30;54.80;;;;;;4868583;29;47409;-81
2023/08/09 07:16:11;;;;;;;1.08;0.73;;;21.20;54.80;;;;;;4862097;29;45323;-82
2023/08/09 07:18:37;;;;;;;1.90;0.82;;;21.30;54.80;;;;;;4866259;29;44991;-81
2023/08/09 07:21:03;;;;;;;1.27;0.70;;;21.20;54.80;;;;;;4865397;29;45178;-84
2023/08/09 07:23:28;;;;;;;0.98;0.70;;;21.20;54.80;;;;;;4865237;29;47232;-81
2023/08/09 07:25:54;;;;;;;0.50;0.50;;;21.20;54.80;;;;;;4849659;29;45226;-80
2023/08/09 07:28:20;;;;;;;1.55;0.70;;;21.20;54.80;;;;;;4882806;29;46175;-80
2023/08/09 07:30:45;;;;;;;1.42;0.70;;;21.30;54.90;;;;;;4875363;29;45842;-81
2023/08/09 07:33:11;;;;;;;1.40;0.82;;;21.30;54.90;;;;;;4885717;29;45428;-79
2023/08/09 07:35:36;;;;;;;0.82;0.73;;;21.30;54.90;;;;;;4866494;29;45370;-81
2023/08/09 07:38:02;;;;;;;0.80;0.70;;;21.30;54.90;;;;;;4864570;29;45293;-84
2023/08/09 07:40:28;;;;;;;1.15;0.70;;;21.20;54.80;;;;;;4863809;29;45468;-80
2023/08/09 07:42:55;;;;;;;1.42;0.70;;;21.30;54.90;;;;;;4879762;29;45227;-80
2023/08/09 07:45:21;;;;;;;1.02;0.60;;;21.20;54.80;;;;;;4868210;28;45379;-81
2023/08/09 07:47:46;;;;;;;1.27;0.80;;;21.30;54.90;;;;;;4863007;29;44923;-81
2023/08/09 07:50:12;;;;;;;0.95;0.50;;;21.30;54.90;;;;;;4866691;29;45582;-85
2023/08/09 07:52:38;;;;;;;0.88;0.50;;;21.30;55.00;;;;;;4863463;29;45677;-81
2023/08/09 07:55:05;;;;;;;1.33;0.70;;;21.20;54.90;;;;;;4850019;29;45245;-85
2023/08/09 07:57:30;;;;;;;1.38;0.60;;;21.30;55.00;;;;;;4864794;29;44928;-79
2023/08/09 07:59:56;;;;;;;1.77;0.47;;;21.20;54.90;;;;;;4884934;29;45666;-84
2023/08/09 08:02:22;;;;;;;1.20;0.60;;;21.20;54.90;;;;;;4870081;29;47275;-81
2023/08/09 08:04:47;;;;;;;0.70;0.50;;;21.20;54.90;;;;;;4874515;29;45235;-81
2023/08/09 08:07:14;;;;;;;0.70;0.60;;;21.20;54.90;;;;;;4830708;29;45589;-82
2023/08/09 08:09:41;;;;;;;0.50;0.50;;;21.30;55.00;;;;;;4831074;29;44895;-83
2023/08/09 08:12:08;;;;;;;0.60;0.60;;;21.30;55.00;;;;;;4855547;29;47139;-80
2023/08/09 08:14:36;;;;;;;0.40;0.38;;;21.20;54.90;;;;;;4877202;29;44779;-80
2023/08/09 08:17:02;;;;;;;0.77;0.55;;;21.30;55.00;;;;;;4856451;29;45172;-82
2023/08/09 08:19:27;;;;;;;1.05;0.65;;;21.30;55.60;;;;;;4864461;29;45052;-80
2023/08/09 08:21:53;;;;;;;0.75;0.60;;;21.30;55.00;;;;;;4828146;29;47468;-81
2023/08/09 08:24:18;;;;;;;1.02;0.68;;;21.20;55.00;;;;;;4892253;28;45109;-82
2023/08/09 08:26:44;;;;;;;0.50;0.50;;;21.20;55.00;;;;;;4857833;29;45152;-80
2023/08/09 08:29:10;;;;;;;0.80;0.80;;;21.20;55.00;;;;;;4844258;29;45332;-81
2023/08/09 08:31:36;;;;;;;0.90;0.70;;;21.20;55.00;;;;;;4871516;29;47194;-82
2023/08/09 08:34:02;;;;;;;0.75;0.52;;;21.20;55.00;;;;;;4844248;29;45570;-81
2023/08/09 08:36:27;;;;;;;0.88;0.57;;;21.20;55.00;;;;;;4867619;29;45639;-83
2023/08/09 08:38:53;;;;;;;1.02;0.68;;;21.20;55.10;;;;;;4823096;29;45447;-81
2023/08/09 08:41:18;;;;;;;1.17;0.70;;;21.20;55.00;;;;;;4835058;29;47273;-82
2023/08/09 08:43:45;;;;;;;0.80;0.70;;;21.20;55.00;;;;;;4872736;29;45015;-81
2023/08/09 08:46:15;;;;;;;0.75;0.60;;;21.30;55.00;;;;;;4822237;29;44700;-79
2023/08/09 08:48:44;;;;;;;0.50;0.50;;;21.20;55.00;;;;;;4858207;29;44739;-80
2023/08/09 08:51:11;;;;;;;0.63;0.57;;;21.30;55.60;;;;;;4838647;29;45752;-81
2023/08/09 08:53:36;;;;;;;0.75;0.70;;;21.20;55.00;;;;;;4841168;29;45171;-79
2023/08/09 08:56:02;;;;;;;1.05;0.60;;;21.20;55.00;;;;;;4873335;29;45019;-81
2023/08/09 08:58:28;;;;;;;0.80;0.60;;;21.30;55.10;;;;;;4888158;28;46064;-80
2023/08/09 09:00:54;;;;;;;0.45;0.45;;;21.20;55.00;;;;;;4874479;28;46760;-81
2023/08/09 09:03:19;;;;;;;0.65;0.50;;;21.30;55.10;;;;;;4894152;28;44929;-82
2023/08/09 09:05:45;;;;;;;0.80;0.60;;;21.20;55.10;;;;;;4862201;28;45002;-81
2023/08/09 09:08:13;;;;;;;0.73;0.60;;;21.20;55.10;;;;;;4879940;28;45743;-81
2023/08/09 09:10:44;;;;;;;0.60;0.43;;;21.20;55.10;;;;;;4893741;28;47252;-81
2023/08/09 09:13:25;;;;;;;1.27;0.70;;;21.20;55.10;;;;;;4878977;28;46073;-79
2023/08/09 09:15:52;;;;;;;0.50;0.50;;;21.30;55.20;;;;;;4880417;29;45066;-80
2023/08/09 09:18:19;;;;;;;0.68;0.50;;;21.30;55.10;;;;;;4893944;28;44974;-80
2023/08/09 09:20:45;;;;;;;0.73;0.52;;;21.20;55.10;;;;;;4864528;29;45511;-84
2023/08/09 09:23:23;;;;;;;0.80;0.65;;;21.20;55.10;;;;;;4878233;28;45300;-82
2023/08/09 09:25:59;;;;;;;0.90;0.65;;;21.20;55.10;;;;;;4878858;28;45269;-81
2023/08/09 09:28:24;;;;;;;1.15;0.60;;;21.20;55.10;;;;;;4853219;28;45450;-80
2023/08/09 09:30:57;;;;;;;0.68;0.60;;;21.20;55.10;;;;;;4890113;28;45752;-81
2023/08/09 09:33:32;;;;;;;0.88;0.60;;;21.30;55.20;;;;;;4880415;28;45469;-82
2023/08/09 09:35:58;;;;;;;0.93;0.68;;;21.30;55.20;;;;;;4871333;29;46983;-81
2023/08/09 09:38:23;;;;;;;1.40;0.80;;;21.30;55.10;;;;;;4886611;28;45549;-81
2023/08/09 09:40:49;;;;;;;0.82;0.63;;;21.20;55.10;;;;;;4869703;29;46354;-80
2023/08/09 09:43:15;;;;;;;0.90;0.40;;;21.30;55.20;;;;;;4884914;28;45227;-80
2023/08/09 09:45:43;;;;;;;0.55;0.52;;;21.20;55.10;;;;;;4893706;28;45403;-85
2023/08/09 09:48:18;;;;;;;1.02;0.57;;;21.20;55.10;;;;;;4850569;28;46285;-83
2023/08/09 09:50:44;;;;;;;0.82;0.70;;;21.30;55.20;;;;;;4864663;29;47518;-80
2023/08/09 09:53:11;;;;;;;0.65;0.63;;;21.20;55.10;;;;;;4889131;28;46066;-81
2023/08/09 09:55:37;;;;;;;0.90;0.70;;;21.30;55.20;;;;;;4870517;28;45262;-83
2023/08/09 09:58:03;;;;;;;1.40;0.75;;;21.20;55.10;;;;;;4888203;28;45416;-81
2023/08/09 10:00:28;;;;;;;1.30;0.60;;;21.30;55.10;;;;;;4864737;28;46875;-83
2023/08/09 10:02:54;;;;;;;0.70;0.70;;;21.30;55.80;;;;;;4864176;29;44880;-83
2023/08/09 10:05:35;;;;;;;0.80;0.70;;;21.30;55.20;;;;;;4863572;29;45757;-81
2023/08/09 10:08:02;;;;;;;0.95;0.75;;;21.30;55.20;;;;;;4870423;29;45804;-80
2023/08/09 10:10:28;;;;;;;0.85;0.60;;;21.30;55.20;;;;;;4848555;29;47230;-81
2023/08/09 10:12:54;;;;;;;1.23;0.93;;;21.30;55.20;;;;;;4866453;29;45630;-81
2023/08/09 10:15:27;;;;;;;2.15;1.00;;;21.30;55.20;;;;;;4865670;29;45219;-83
2023/08/09 10:17:54;;;;;;;0.90;0.70;;;21.30;55.20;;;;;;4853060;29;45701;-80
2023/08/09 10:20:20;;;;;;;0.77;0.60;;;21.30;55.20;;;;;;4861538;29;47115;-89
2023/08/09 10:22:47;;;;;;;1.17;0.70;;;21.30;55.20;;;;;;4896847;28;45491;-81
2023/08/09 10:25:16;;;;;;;1.50;0.73;;;21.20;55.20;;;;;;4878129;29;45230;-83
2023/08/09 10:27:58;;;;;;;0.65;0.60;;;21.30;55.20;;;;;;4880484;29;46095;-80
2023/08/09 10:30:31;;;;;;;0.63;0.50;;;21.30;55.20;;;;;;4877234;29;45931;-80
2023/08/09 10:32:57;;;;;;;1.50;0.60;;;21.30;55.20;;;;;;4893154;28;45002;-82
2023/08/09 10:35:54;;;;;;;1.45;0.80;;;21.30;55.20;;;;;;4884267;29;45361;-82
2023/08/09 10:38:21;;;;;;;1.23;0.75;;;21.30;55.30;;;;;;4882111;29;45091;-81
2023/08/09 10:40:51;;;;;;;0.90;0.63;;;21.20;55.20;;;;;;4877162;29;46920;-79
2023/08/09 10:43:20;;;;;;;0.93;0.73;;;21.20;55.20;;;;;;4881241;29;44827;-80
2023/08/09 10:45:46;;;;;;;0.65;0.57;;;21.30;55.20;;;;;;4861126;29;46150;-80
2023/08/09 10:48:30;;;;;;;1.13;0.70;;;21.30;55.20;;;;;;4881269;29;45490;-82
2023/08/09 10:51:03;;;;;;;0.75;0.50;;;21.30;55.30;;;;;;4880086;29;46040;-83
2023/08/09 10:53:28;;;;;;;0.97;0.57;;;21.30;55.30;;;;;;4877167;29;45479;-81
2023/08/09 10:55:57;;;;;;;1.10;0.70;;;21.30;55.30;;;;;;4857072;29;45140;-83
2023/08/09 10:58:29;;;;;;;1.05;0.75;;;21.30;55.20;;;;;;4883366;29;45727;-84
2023/08/09 11:00:55;;;;;;;0.77;0.77;;;21.30;55.20;;;;;;4890354;28;45304;-82
2023/08/09 11:03:22;;;;;;;0.63;0.50;;;21.30;55.20;;;;;;4870532;28;45514;-82
2023/08/09 11:05:47;;;;;;;1.10;0.80;;;21.30;55.20;;;;;;4846374;29;45467;-80
2023/08/09 11:08:17;;;;;;;1.02;0.70;;;21.30;55.30;;;;;;4886560;28;45549;-79
2023/08/09 11:10:43;;;;;;;0.77;0.50;;;21.30;55.20;;;;;;4879392;28;46957;-80
2023/08/09 11:13:10;;;;;;;0.95;0.70;;;21.30;55.20;;;;;;4884080;28;45915;-80
2023/08/09 11:15:36;;;;;;;0.90;0.50;;;21.30;55.20;;;;;;4876640;28;45404;-84
2023/08/09 11:18:01;;;;;;;0.65;0.60;;;21.30;55.20;;;;;;4883556;28;45219;-80
2023/08/09 11:20:27;;;;;;;3.38;0.70;;;21.30;55.30;;;;;;4870510;28;47245;-83
2023/08/09 11:22:56;;;;;;;0.52;0.50;;;21.30;55.30;;;;;;4858167;29;45355;-81
2023/08/09 11:25:23;;;;;;;0.70;0.70;;;21.30;55.30;;;;;;4881553;29;45416;-80
2023/08/09 11:27:56;;;;;;;0.82;0.68;;;21.30;55.20;;;;;;4896867;28;45439;-81
2023/08/09 11:30:21;;;;;;;;;;;21.30;55.30;;;;;;4864247;28;46226;-82
2023/08/09 11:32:55;;;;;;;0.57;0.57;;;21.30;55.40;;;;;;4863591;28;45251;-83
2023/08/09 11:35:25;;;;;;;1.13;0.65;;;21.30;55.30;;;;;;4880435;29;45221;-81
2023/08/09 11:37:52;;;;;;;0.70;0.50;;;21.30;55.30;;;;;;4897828;28;44926;-81
2023/08/09 11:40:20;;;;;;;0.90;0.65;;;21.30;55.30;;;;;;4879188;28;46898;-81
2023/08/09 11:42:45;;;;;;;0.70;0.70;;;21.30;55.20;;;;;;4883726;28;46375;-82
2023/08/09 11:45:11;;;;;;;0.43;0.40;;;21.30;55.20;;;;;;4880269;28;45075;-81
2023/08/09 11:47:36;;;;;;;0.88;0.60;;;21.30;55.30;;;;;;4850244;28;45301;-80
2023/08/09 11:50:20;;;;;;;1.73;0.70;;;21.30;55.20;;;;;;4896827;28;46681;-85
2023/08/09 11:52:45;;;;;;;0.70;0.63;;;21.30;55.30;;;;;;4896208;28;45373;-81
2023/08/09 11:55:11;;;;;;;0.70;0.60;;;21.30;55.30;;;;;;4850111;28;45708;-80
2023/08/09 11:57:36;;;;;;;1.42;0.68;;;21.30;55.20;;;;;;4879073;28;45681;-83
2023/08/09 12:00:09;;;;;;;0.80;0.60;;;21.30;55.30;;;;;;4886097;28;46192;-81
2023/08/09 12:02:36;;;;;;;0.73;0.60;;;21.30;55.30;;;;;;4878072;28;44682;-81
2023/08/09 12:05:09;;;;;;;0.82;0.70;;;21.30;55.30;;;;;;4865796;28;45659;-82
2023/08/09 12:07:34;;;;;;;0.40;0.40;;;21.30;55.30;;;;;;4862977;28;45467;-83
2023/08/09 12:10:02;;;;;;;0.73;0.60;;;21.30;55.30;;;;;;4879710;28;47185;-80
2023/08/09 12:12:36;;;;;;;1.10;0.80;;;21.30;55.30;;;;;;4883903;28;45313;-81
2023/08/09 12:15:01;;;;;;;0.50;0.50;;;21.30;55.30;;;;;;4853647;28;44920;-80
2023/08/09 12:17:28;;;;;;;0.60;0.60;;;21.30;55.30;;;;;;4876596;29;45176;-81
2023/08/09 12:19:58;;;;;;;0.73;0.60;;;21.30;55.30;;;;;;4866793;29;45360;-79
2023/08/09 12:22:25;;;;;;;0.50;0.50;;;21.30;55.30;;;;;;4893240;28;45480;-84
2023/08/09 12:24:51;;;;;;;2.33;0.57;;;21.30;55.30;;;;;;4878790;28;46047;-80
2023/08/09 12:27:18;;;;;;;0.85;0.60;;;21.30;55.30;;;;;;4846750;29;45875;-81
2023/08/09 12:29:43;;;;;;;0.70;0.60;;;21.30;55.30;;;;;;4850120;29;47938;-84
2023/08/09 12:32:09;;;;;;;0.40;0.40;;;21.30;55.30;;;;;;4864869;28;45176;-81
2023/08/09 12:34:34;;;;;;;0.45;0.35;;;21.30;55.30;;;;;;4881869;28;45663;-80
2023/08/09 12:37:00;;;;;;;0.57;0.50;;;21.30;55.30;;;;;;4882695;28;45343;-82
2023/08/09 12:39:28;;;;;;;0.55;0.55;;;21.30;55.30;;;;;;4883943;29;45389;-80
2023/08/09 12:41:55;;;;;;;0.40;0.40;;;21.40;55.40;;;;;;4865564;28;44984;-83
2023/08/09 12:44:20;;;;;;;0.50;0.50;;;21.30;55.30;;;;;;4897404;28;45453;-81
2023/08/09 12:46:46;;;;;;;0.63;0.40;;;21.30;55.30;;;;;;4867603;28;45373;-82
2023/08/09 12:49:11;;;;;;;0.60;0.50;;;21.30;55.30;;;;;;4837859;28;47509;-82
2023/08/09 12:51:37;;;;;;;0.40;0.40;;;21.30;55.30;;;;;;4881748;28;46917;-83
2023/08/09 12:54:09;;;;;;;0.40;0.40;;;21.30;55.30;;;;;;4873567;28;45538;-82
2023/08/09 12:56:35;;;;;;;0.65;0.57;;;21.40;55.40;;;;;;4862492;28;45540;-80
2023/08/09 12:59:01;;;;;;;0.40;0.40;;;21.40;55.40;;;;;;4886664;28;45339;-79
2023/08/09 13:01:27;;;;;;;0.63;0.50;;;21.30;55.30;;;;;;4863959;28;45640;-81
2023/08/09 13:03:52;;;;;;;0.70;0.40;;;21.30;55.30;;;;;;4892201;28;45753;-83
2023/08/09 13:06:18;;;;;;;0.52;0.45;;;21.40;55.40;;;;;;4860971;29;45241;-81
2023/08/09 13:08:47;;;;;;;0.35;0.35;;;21.30;55.30;;;;;;4883743;29;46234;-81
2023/08/09 13:11:12;;;;;;;0.40;0.40;;;21.30;55.40;;;;;;4883264;28;45212;-82
2023/08/09 13:13:38;;;;;;;1.23;0.60;;;21.30;55.30;;;;;;4887223;28;44825;-85
2023/08/09 13:16:06;;;;;;;0.50;0.50;;;21.40;55.40;;;;;;4868893;28;45106;-82
2023/08/09 13:18:33;;;;;;;0.85;0.50;;;21.30;55.30;;;;;;4884286;29;46483;-82
2023/08/09 13:20:58;;;;;;;0.47;0.43;;;21.30;55.30;;;;;;4867187;28;45530;-81
2023/08/09 13:23:24;;;;;;;0.35;0.35;;;21.40;55.40;;;;;;4871623;29;46927;-80
2023/08/09 13:25:49;;;;;;;0.40;0.30;;;21.40;55.40;;;;;;4885079;29;45193;-80
2023/08/09 13:28:15;;;;;;;0.82;0.40;;;21.30;55.30;;;;;;4871326;29;45560;-81
2023/08/09 13:30:40;;;;;;;0.30;0.30;;;21.30;55.40;;;;;;4896500;28;45178;-82
2023/08/09 13:33:06;;;;;;;0.55;0.50;;;21.30;55.30;;;;;;4851559;29;45078;-81
2023/08/09 13:35:34;;;;;;;0.65;0.47;;;21.30;55.30;;;;;;4887593;29;45649;-82
2023/08/09 13:38:02;;;;;;;0.43;0.30;;;21.40;55.40;;;;;;4879736;28;45157;-81
2023/08/09 13:40:27;;;;;;;0.30;0.30;;;21.40;55.40;;;;;;4870576;29;45454;-84
2023/08/09 13:42:53;;;;;;;0.80;0.50;;;21.40;55.40;;;;;;4871140;28;44965;-81
2023/08/09 13:45:18;;;;;;;0.60;0.50;;;21.40;55.40;;;;;;4866053;29;45482;-84
2023/08/09 13:47:44;;;;;;;0.47;0.47;;;21.40;55.40;;;;;;4883217;28;47024;-82
2023/08/09 13:50:10;;;;;;;0.40;0.40;;;21.40;55.40;;;;;;4869021;28;45406;-82
2023/08/09 13:52:36;;;;;;;0.30;0.30;;;21.40;55.40;;;;;;4868617;28;45797;-82
2023/08/09 13:55:03;;;;;;;0.30;0.30;;;21.40;55.40;;;;;;4884490;28;45644;-81
2023/08/09 13:57:28;;;;;;;0.43;0.43;;;21.40;55.40;;;;;;4871808;29;46364;-81
2023/08/09 13:59:54;;;;;;;0.47;0.47;;;21.40;55.40;;;;;;4867989;28;45563;-80
2023/08/09 14:02:20;;;;;;;2.05;0.30;;;21.40;55.40;;;;;;4855490;29;45496;-81
2023/08/09 14:04:46;;;;;;;0.43;0.43;;;21.40;55.40;;;;;;4887231;29;45739;-81
2023/08/09 14:07:11;;;;;;;0.28;0.28;;;21.40;55.40;;;;;;4871753;29;47018;-82
2023/08/09 14:09:37;;;;;;;0.40;0.30;;;21.40;55.40;;;;;;4884588;29;45875;-80
2023/08/09 14:12:03;;;;;;;0.40;0.40;;;21.40;55.40;;;;;;4885071;29;45223;-82
2023/08/09 14:14:29;;;;;;;0.40;0.32;;;21.40;55.40;;;;;;4875696;29;45706;-81
2023/08/09 14:16:54;;;;;;;0.30;0.30;;;21.40;56.10;;;;;;4865866;29;47338;-81
2023/08/09 14:19:20;;;;;;;0.40;0.40;;;21.40;55.40;;;;;;4873110;29;45320;-82
2023/08/09 14:21:46;;;;;;;0.38;0.38;;;21.40;55.50;;;;;;4879171;29;45562;-81
2023/08/09 14:24:13;;;;;;;0.30;0.30;;;21.40;55.40;;;;;;4859095;29;45132;-82
2023/08/09 14:26:39;;;;;;;0.40;0.30;;;21.40;55.40;;;;;;4869426;29;45046;-82
2023/08/09 14:29:06;;;;;;;0.55;0.47;;;21.40;55.40;;;;;;4874466;29;44830;-83
2023/08/09 14:31:34;;;;;;;0.30;0.30;;;21.40;55.40;;;;;;4881487;29;45521;-82
2023/08/09 14:34:00;;;;;;;0.30;0.22;;;21.40;55.50;;;;;;4882916;29;45428;-81
2023/08/09 14:36:26;;;;;;;0.30;0.30;;;21.40;55.50;;;;;;4881292;29;47152;-81
2023/08/09 14:38:52;;;;;;;0.43;0.32;;;21.40;55.50;;;;;;4867267;29;45383;-81
2023/08/09 14:41:18;;;;;;;0.65;0.50;;;21.40;55.40;;;;;;4883474;29;45050;-81
2023/08/09 14:43:43;;;;;;;0.30;0.30;;;21.40;55.50;;;;;;4868429;29;45046;-81
2023/08/09 14:46:09;;;;;;;0.30;0.25;;;21.40;55.50;;;;;;4865730;29;46114;-83
2023/08/09 14:48:34;;;;;;;0.30;0.30;;;21.40;55.50;;;;;;4868347;29;45291;-81
2023/08/09 14:51:01;;;;;;;0.45;0.35;;;21.40;55.50;;;;;;4867666;29;45639;-81
2023/08/09 14:53:26;;;;;;;0.63;0.35;;;21.40;55.50;;;;;;4881203;29;45794;-81
2023/08/09 14:55:52;;;;;;;0.47;0.45;;;21.40;55.50;;;;;;4880790;29;47480;-82
2023/08/09 14:58:17;;;;;;;0.20;0.20;;;21.40;55.50;;;;;;4880284;29;45111;-80
2023/08/09 15:00:43;;;;;;;0.55;0.40;;;21.40;55.50;;;;;;4844101;29;45265;-85
2023/08/09 15:03:09;;;;;;;0.40;0.40;;;21.40;55.50;;;;;;4849176;29;44941;-82
2023/08/09 15:05:34;;;;;;;0.57;0.50;;;21.40;55.50;;;;;;4879891;29;46166;-80
2023/08/09 15:08:00;;;;;;;0.60;0.40;;;21.40;55.50;;;;;;4881501;29;44583;-80
2023/08/09 15:10:26;;;;;;;0.22;0.22;;;21.40;55.50;;;;;;4867213;28;45637;-81
2023/08/09 15:12:52;;;;;;;0.47;0.35;;;21.40;55.50;;;;;;4880612;29;45194;-83
2023/08/09 15:15:21;;;;;;;0.30;0.30;;;21.40;55.50;;;;;;4878868;29;45979;-83
2023/08/09 15:17:46;;;;;;;0.40;0.40;;;21.40;55.50;;;;;;4881526;29;45231;-83
2023/08/09 15:20:12;;;;;;;0.30;0.30;;;21.40;55.50;;;;;;4833759;29;44817;-83
2023/08/09 15:22:38;;;;;;;1.25;0.40;;;21.40;55.50;;;;;;4880151;29;45938;-84
2023/08/09 15:25:23;;;;;;;0.60;0.20;;;21.40;55.50;;;;;;4879719;29;45461;-85
2023/08/09 15:27:50;;;;;;;0.30;0.30;;;21.40;55.50;;;;;;4882680;29;46009;-82
2023/08/09 15:30:18;;;;;;;0.60;0.30;;;21.40;55.50;;;;;;4862169;29;44984;-80
2023/08/09 15:32:45;;;;;;;0.45;0.30;;;21.40;55.50;;;;;;4851023;29;45011;-81
2023/08/09 15:35:10;;;;;;;0.63;0.32;;;21.40;55.50;;;;;;4878588;29;48351;-82
2023/08/09 15:37:36;;;;;;;0.68;0.38;;;21.40;55.50;;;;;;4878750;29;45082;-82
2023/08/09 15:40:09;;;;;;;0.60;0.40;;;21.40;55.50;;;;;;4877791;29;45429;-86
2023/08/09 15:42:34;;;;;;;0.32;0.30;;;21.40;55.50;;;;;;4878298;29;44723;-83
2023/08/09 15:45:00;;;;;;;0.25;0.25;;;21.40;55.50;;;;;;4880397;29;46042;-80
2023/08/09 15:47:26;;;;;;;0.30;0.30;;;21.40;55.50;;;;;;4863869;29;45111;-83